This is the latest recevied weather packets stored in our database for station/object N6DZK. If no packets are shown the sender has not sent any weather packets the latest 10 day(s).
| Time | Temp. | Humidity | Pressure | Rain* | Wind** | Luminosity | Snow |
|---|---|---|---|---|---|---|---|
| 1777927035 | 22.22° C | 47% | 1015.1 hPa | 0 mm | - | 487 W/m² | - |
| 1777926732 | 22.22° C | 46% | 1015.1 hPa | 0 mm | - | 443 W/m² | - |
| 1777926432 | 23.33° C | 45% | 1015 hPa | 0 mm | - | 396 W/m² | - |
| 1777926129 | 23.33° C | 44% | 1015.2 hPa | 0 mm | - | 977 W/m² | - |
| 1777925826 | 22.78° C | 45% | 1015.2 hPa | 0 mm | - | 1235 W/m² | - |
| 1777925524 | 22.22° C | 47% | 1015.3 hPa | 0 mm | - | 1166 W/m² | - |
| 1777925221 | 21.67° C | 48% | 1015.2 hPa | 0 mm | - | 808 W/m² | - |
| 1777924917 | 22.22° C | 47% | 1015.3 hPa | 0 mm | - | 917 W/m² | - |
| 1777924613 | 22.22° C | 49% | 1015.3 hPa | 0 mm | - | 1141 W/m² | - |
| 1777924309 | 22.22° C | 46% | 1015.3 hPa | 0 mm | - | 1245 W/m² | - |
| 1777924006 | 21.67° C | 51% | 1015.3 hPa | 0 mm | - | 1181 W/m² | - |
| 1777923702 | 21.67° C | 49% | 1015.6 hPa | 0 mm | - | 235 W/m² | - |
| 1777923399 | 22.22° C | 49% | 1015.4 hPa | 0 mm | - | 1181 W/m² | - |
| 1777923097 | 22.22° C | 48% | 1015.4 hPa | 0 mm | - | 1283 W/m² | - |
| 1777922795 | 21.67° C | 50% | 1015.5 hPa | 0 mm | - | 1104 W/m² | - |
| 1777922493 | 20.56° C | 51% | 1015.6 hPa | 0 mm | - | 681 W/m² | - |
| 1777922191 | 21.11° C | 48% | 1015.8 hPa | 0 mm | - | 487 W/m² | - |
| 1777921887 | 21.11° C | 50% | 1015.6 hPa | 0 mm | - | 609 W/m² | - |
| 1777921583 | 21.11° C | 51% | 1015.5 hPa | 0 mm | - | 1334 W/m² | - |
| 1777921280 | 20.56° C | 53% | 1015.5 hPa | 0 mm | - | 813 W/m² | - |
| 1777920976 | 19.44° C | 54% | 1015.6 hPa | 0 mm | - | 644 W/m² | - |
| 1777920673 | 18.89° C | 56% | 1015.6 hPa | 0 mm | - | 534 W/m² | - |
| 1777920369 | 18.89° C | 56% | 1015.5 hPa | 0 mm | - | 434 W/m² | - |
| 1777920064 | 18.89° C | 57% | 1015.6 hPa | 0 mm | - | 420 W/m² | - |
| 1777919761 | 18.33° C | 57% | 1015.8 hPa | 0 mm | - | 386 W/m² | - |
* Rain latest hour (hover to see other rain measurements)
** Current wind speed in m/s (hover to see current wind gust speed)